sensor_id;sensor_type;location;lat;lon;timestamp;temperature;humidity
54518;DHT22;40423;53.176;6.002;2022-11-15T00:00:19;8.20;99.90
54518;DHT22;40423;53.176;6.002;2022-11-15T00:02:45;8.20;99.90
54518;DHT22;40423;53.176;6.002;2022-11-15T00:05:10;8.20;99.90
54518;DHT22;40423;53.176;6.002;2022-11-15T00:07:37;8.20;99.90
54518;DHT22;40423;53.176;6.002;2022-11-15T00:10:03;8.20;99.90
54518;DHT22;40423;53.176;6.002;2022-11-15T00:12:29;8.20;99.90
54518;DHT22;40423;53.176;6.002;2022-11-15T00:14:55;8.10;99.90
54518;DHT22;40423;53.176;6.002;2022-11-15T00:17:20;8.10;99.90
54518;DHT22;40423;53.176;6.002;2022-11-15T00:19:46;8.10;99.90
54518;DHT22;40423;53.176;6.002;2022-11-15T00:22:12;8.20;99.90
54518;DHT22;40423;53.176;6.002;2022-11-15T00:24:37;8.10;99.90
54518;DHT22;40423;53.176;6.002;2022-11-15T00:27:03;8.20;99.90
54518;DHT22;40423;53.176;6.002;2022-11-15T00:29:29;8.10;99.90
54518;DHT22;40423;53.176;6.002;2022-11-15T00:31:54;8.10;99.90
54518;DHT22;40423;53.176;6.002;2022-11-15T00:34:20;8.10;99.90
54518;DHT22;40423;53.176;6.002;2022-11-15T00:36:47;8.50;99.90
54518;DHT22;40423;53.176;6.002;2022-11-15T00:39:13;8.20;99.90
54518;DHT22;40423;53.176;6.002;2022-11-15T00:41:38;8.20;99.90
54518;DHT22;40423;53.176;6.002;2022-11-15T00:44:04;8.20;99.90
54518;DHT22;40423;53.176;6.002;2022-11-15T00:46:30;8.10;99.90
54518;DHT22;40423;53.176;6.002;2022-11-15T00:48:55;8.10;99.90
54518;DHT22;40423;53.176;6.002;2022-11-15T00:51:21;8.20;99.90
54518;DHT22;40423;53.176;6.002;2022-11-15T00:53:46;8.60;99.90
54518;DHT22;40423;53.176;6.002;2022-11-15T00:56:12;8.20;99.90
54518;DHT22;40423;53.176;6.002;2022-11-15T00:58:38;8.20;99.90
54518;DHT22;40423;53.176;6.002;2022-11-15T01:01:09;8.20;99.90
54518;DHT22;40423;53.176;6.002;2022-11-15T01:03:36;8.10;99.90
54518;DHT22;40423;53.176;6.002;2022-11-15T01:06:02;8.10;99.90
54518;DHT22;40423;53.176;6.002;2022-11-15T01:08:27;8.10;99.90
54518;DHT22;40423;53.176;6.002;2022-11-15T01:10:53;8.10;99.90
54518;DHT22;40423;53.176;6.002;2022-11-15T01:13:19;8.10;99.90
54518;DHT22;40423;53.176;6.002;2022-11-15T01:15:44;8.10;99.90
54518;DHT22;40423;53.176;6.002;2022-11-15T01:18:10;8.30;99.90
54518;DHT22;40423;53.176;6.002;2022-11-15T01:20:42;8.10;99.90
54518;DHT22;40423;53.176;6.002;2022-11-15T01:23:09;8.10;99.90
54518;DHT22;40423;53.176;6.002;2022-11-15T01:25:34;8.00;99.90
54518;DHT22;40423;53.176;6.002;2022-11-15T01:28:00;8.00;99.90
54518;DHT22;40423;53.176;6.002;2022-11-15T01:30:26;8.00;99.90
54518;DHT22;40423;53.176;6.002;2022-11-15T01:32:51;8.00;99.90
54518;DHT22;40423;53.176;6.002;2022-11-15T01:35:17;8.00;99.90
54518;DHT22;40423;53.176;6.002;2022-11-15T01:37:43;8.00;99.90
54518;DHT22;40423;53.176;6.002;2022-11-15T01:40:09;7.90;99.90
54518;DHT22;40423;53.176;6.002;2022-11-15T01:42:34;7.80;99.90
54518;DHT22;40423;53.176;6.002;2022-11-15T01:45:00;7.80;99.90
54518;DHT22;40423;53.176;6.002;2022-11-15T01:47:28;7.80;99.90
54518;DHT22;40423;53.176;6.002;2022-11-15T01:52:25;7.80;99.90
54518;DHT22;40423;53.176;6.002;2022-11-15T01:55:05;8.40;99.90
54518;DHT22;40423;53.176;6.002;2022-11-15T01:57:34;7.70;99.90
54518;DHT22;40423;53.176;6.002;2022-11-15T02:00:00;7.70;99.90
54518;DHT22;40423;53.176;6.002;2022-11-15T02:02:26;8.40;99.90
54518;DHT22;40423;53.176;6.002;2022-11-15T02:04:52;7.60;99.90
54518;DHT22;40423;53.176;6.002;2022-11-15T02:07:20;8.30;99.90
54518;DHT22;40423;53.176;6.002;2022-11-15T02:09:46;7.60;99.90
54518;DHT22;40423;53.176;6.002;2022-11-15T02:12:15;7.60;99.90
54518;DHT22;40423;53.176;6.002;2022-11-15T02:14:43;7.60;99.90
54518;DHT22;40423;53.176;6.002;2022-11-15T02:28:44;7.50;99.90
54518;DHT22;40423;53.176;6.002;2022-11-15T02:31:24;7.50;99.90
54518;DHT22;40423;53.176;6.002;2022-11-15T02:34:13;7.40;99.90
54518;DHT22;40423;53.176;6.002;2022-11-15T02:36:54;7.50;99.90
54518;DHT22;40423;53.176;6.002;2022-11-15T02:39:46;7.40;99.90
54518;DHT22;40423;53.176;6.002;2022-11-15T02:42:23;7.50;99.90
54518;DHT22;40423;53.176;6.002;2022-11-15T02:45:12;7.40;99.90
54518;DHT22;40423;53.176;6.002;2022-11-15T02:47:44;7.40;99.90
54518;DHT22;40423;53.176;6.002;2022-11-15T02:50:14;7.40;99.90
54518;DHT22;40423;53.176;6.002;2022-11-15T02:52:45;7.50;99.90
54518;DHT22;40423;53.176;6.002;2022-11-15T02:55:31;7.50;99.90
54518;DHT22;40423;53.176;6.002;2022-11-15T03:01:00;7.50;99.90
54518;DHT22;40423;53.176;6.002;2022-11-15T03:09:07;7.60;99.90
54518;DHT22;40423;53.176;6.002;2022-11-15T03:11:42;7.50;99.90
54518;DHT22;40423;53.176;6.002;2022-11-15T03:17:16;7.50;99.90
54518;DHT22;40423;53.176;6.002;2022-11-15T03:19:49;7.50;99.90
54518;DHT22;40423;53.176;6.002;2022-11-15T03:22:19;7.50;99.90
54518;DHT22;40423;53.176;6.002;2022-11-15T03:24:48;7.50;99.90
54518;DHT22;40423;53.176;6.002;2022-11-15T03:27:19;7.60;99.90
54518;DHT22;40423;53.176;6.002;2022-11-15T03:29:51;7.50;99.90
54518;DHT22;40423;53.176;6.002;2022-11-15T03:32:28;7.50;99.90
54518;DHT22;40423;53.176;6.002;2022-11-15T03:35:04;7.60;99.90
54518;DHT22;40423;53.176;6.002;2022-11-15T03:37:36;7.60;99.90
54518;DHT22;40423;53.176;6.002;2022-11-15T03:40:04;7.60;99.90
54518;DHT22;40423;53.176;6.002;2022-11-15T03:43:19;7.60;99.90
54518;DHT22;40423;53.176;6.002;2022-11-15T03:45:31;7.50;99.90
54518;DHT22;40423;53.176;6.002;2022-11-15T03:48:14;7.60;99.90
54518;DHT22;40423;53.176;6.002;2022-11-15T03:50:42;7.60;99.90
54518;DHT22;40423;53.176;6.002;2022-11-15T03:53:09;7.60;99.90
54518;DHT22;40423;53.176;6.002;2022-11-15T03:55:35;7.60;99.90
54518;DHT22;40423;53.176;6.002;2022-11-15T03:58:01;7.60;99.90
54518;DHT22;40423;53.176;6.002;2022-11-15T04:00:27;8.10;99.90
54518;DHT22;40423;53.176;6.002;2022-11-15T04:02:53;7.70;99.90
54518;DHT22;40423;53.176;6.002;2022-11-15T04:05:19;7.80;99.90
54518;DHT22;40423;53.176;6.002;2022-11-15T04:07:44;8.10;99.90
54518;DHT22;40423;53.176;6.002;2022-11-15T04:10:11;7.80;99.90
54518;DHT22;40423;53.176;6.002;2022-11-15T04:12:40;7.80;99.90
54518;DHT22;40423;53.176;6.002;2022-11-15T04:15:12;7.80;99.90
54518;DHT22;40423;53.176;6.002;2022-11-15T04:17:41;7.80;99.90
54518;DHT22;40423;53.176;6.002;2022-11-15T04:20:13;7.90;99.90
54518;DHT22;40423;53.176;6.002;2022-11-15T04:22:58;7.90;99.90
54518;DHT22;40423;53.176;6.002;2022-11-15T04:25:59;7.90;99.90
54518;DHT22;40423;53.176;6.002;2022-11-15T04:28:25;8.00;99.90
54518;DHT22;40423;53.176;6.002;2022-11-15T04:30:51;8.00;99.90
54518;DHT22;40423;53.176;6.002;2022-11-15T04:33:17;8.00;99.90
54518;DHT22;40423;53.176;6.002;2022-11-15T04:35:43;8.00;99.90
54518;DHT22;40423;53.176;6.002;2022-11-15T04:38:10;8.00;99.90
54518;DHT22;40423;53.176;6.002;2022-11-15T04:40:37;8.00;99.90
54518;DHT22;40423;53.176;6.002;2022-11-15T04:43:03;8.10;99.90
54518;DHT22;40423;53.176;6.002;2022-11-15T04:45:30;8.10;99.90
54518;DHT22;40423;53.176;6.002;2022-11-15T04:47:55;8.10;99.90
54518;DHT22;40423;53.176;6.002;2022-11-15T04:50:21;8.10;99.90
54518;DHT22;40423;53.176;6.002;2022-11-15T04:52:52;8.20;99.90
54518;DHT22;40423;53.176;6.002;2022-11-15T04:55:18;8.20;99.90
54518;DHT22;40423;53.176;6.002;2022-11-15T04:57:43;8.20;99.90
54518;DHT22;40423;53.176;6.002;2022-11-15T05:00:12;8.20;99.90
54518;DHT22;40423;53.176;6.002;2022-11-15T05:02:38;8.20;99.90
54518;DHT22;40423;53.176;6.002;2022-11-15T05:05:27;8.30;99.90
54518;DHT22;40423;53.176;6.002;2022-11-15T05:07:53;8.30;99.90
54518;DHT22;40423;53.176;6.002;2022-11-15T05:10:18;8.30;99.90
54518;DHT22;40423;53.176;6.002;2022-11-15T05:12:44;8.30;99.90
54518;DHT22;40423;53.176;6.002;2022-11-15T05:15:11;8.30;99.90
54518;DHT22;40423;53.176;6.002;2022-11-15T05:17:37;8.40;99.90
54518;DHT22;40423;53.176;6.002;2022-11-15T05:20:03;8.40;99.90
54518;DHT22;40423;53.176;6.002;2022-11-15T05:22:28;8.40;99.90
54518;DHT22;40423;53.176;6.002;2022-11-15T05:24:54;8.50;99.90
54518;DHT22;40423;53.176;6.002;2022-11-15T05:27:20;8.50;99.90
54518;DHT22;40423;53.176;6.002;2022-11-15T05:29:45;8.40;99.90
54518;DHT22;40423;53.176;6.002;2022-11-15T05:32:12;8.50;99.90
54518;DHT22;40423;53.176;6.002;2022-11-15T05:34:38;8.60;99.90
54518;DHT22;40423;53.176;6.002;2022-11-15T05:37:04;8.60;99.90
54518;DHT22;40423;53.176;6.002;2022-11-15T05:39:30;8.70;99.90
54518;DHT22;40423;53.176;6.002;2022-11-15T05:42:05;8.80;99.90
54518;DHT22;40423;53.176;6.002;2022-11-15T05:44:34;8.70;99.90
54518;DHT22;40423;53.176;6.002;2022-11-15T05:47:02;8.70;99.90
54518;DHT22;40423;53.176;6.002;2022-11-15T05:49:31;8.80;99.90
54518;DHT22;40423;53.176;6.002;2022-11-15T05:51:59;8.80;99.90
54518;DHT22;40423;53.176;6.002;2022-11-15T05:54:25;8.80;99.90
54518;DHT22;40423;53.176;6.002;2022-11-15T05:56:51;8.90;99.90
54518;DHT22;40423;53.176;6.002;2022-11-15T05:59:18;8.90;99.90
54518;DHT22;40423;53.176;6.002;2022-11-15T06:01:44;9.00;99.90
54518;DHT22;40423;53.176;6.002;2022-11-15T06:04:10;9.00;99.90
54518;DHT22;40423;53.176;6.002;2022-11-15T06:06:35;9.00;99.90
54518;DHT22;40423;53.176;6.002;2022-11-15T06:09:01;9.10;99.90
54518;DHT22;40423;53.176;6.002;2022-11-15T06:11:27;9.10;99.90
54518;DHT22;40423;53.176;6.002;2022-11-15T06:13:52;9.10;99.90
54518;DHT22;40423;53.176;6.002;2022-11-15T06:16:18;9.20;99.90
54518;DHT22;40423;53.176;6.002;2022-11-15T06:18:44;9.20;99.90
54518;DHT22;40423;53.176;6.002;2022-11-15T06:21:09;9.20;99.90
54518;DHT22;40423;53.176;6.002;2022-11-15T06:23:35;9.30;99.90
54518;DHT22;40423;53.176;6.002;2022-11-15T06:26:02;9.20;99.90
54518;DHT22;40423;53.176;6.002;2022-11-15T06:28:29;9.30;99.90
54518;DHT22;40423;53.176;6.002;2022-11-15T06:30:56;9.30;99.90
54518;DHT22;40423;53.176;6.002;2022-11-15T06:33:22;9.30;99.90
54518;DHT22;40423;53.176;6.002;2022-11-15T06:35:48;9.40;99.90
54518;DHT22;40423;53.176;6.002;2022-11-15T06:38:14;9.40;99.90
54518;DHT22;40423;53.176;6.002;2022-11-15T06:40:39;9.50;99.90
54518;DHT22;40423;53.176;6.002;2022-11-15T06:43:06;9.50;99.90
54518;DHT22;40423;53.176;6.002;2022-11-15T06:45:32;9.50;99.90
54518;DHT22;40423;53.176;6.002;2022-11-15T06:47:58;9.60;99.90
54518;DHT22;40423;53.176;6.002;2022-11-15T06:50:24;9.60;99.90
54518;DHT22;40423;53.176;6.002;2022-11-15T06:52:50;9.60;99.90
54518;DHT22;40423;53.176;6.002;2022-11-15T06:55:15;9.60;99.90
54518;DHT22;40423;53.176;6.002;2022-11-15T06:57:52;9.70;99.90
54518;DHT22;40423;53.176;6.002;2022-11-15T07:00:19;9.70;99.90
54518;DHT22;40423;53.176;6.002;2022-11-15T07:02:45;9.70;99.90
54518;DHT22;40423;53.176;6.002;2022-11-15T07:05:12;9.80;99.90
54518;DHT22;40423;53.176;6.002;2022-11-15T07:07:38;9.80;99.90
54518;DHT22;40423;53.176;6.002;2022-11-15T07:10:04;9.80;99.90
54518;DHT22;40423;53.176;6.002;2022-11-15T07:12:30;9.80;99.90
54518;DHT22;40423;53.176;6.002;2022-11-15T07:14:56;9.90;99.90
54518;DHT22;40423;53.176;6.002;2022-11-15T07:17:21;10.10;99.90
54518;DHT22;40423;53.176;6.002;2022-11-15T07:19:47;9.90;99.90
54518;DHT22;40423;53.176;6.002;2022-11-15T07:22:13;10.00;99.90
54518;DHT22;40423;53.176;6.002;2022-11-15T07:24:38;10.00;99.90
54518;DHT22;40423;53.176;6.002;2022-11-15T07:27:04;10.00;99.90
54518;DHT22;40423;53.176;6.002;2022-11-15T07:29:30;10.00;99.90
54518;DHT22;40423;53.176;6.002;2022-11-15T07:31:55;10.10;99.90
54518;DHT22;40423;53.176;6.002;2022-11-15T07:34:21;10.10;99.90
54518;DHT22;40423;53.176;6.002;2022-11-15T07:36:47;10.10;99.90
54518;DHT22;40423;53.176;6.002;2022-11-15T07:39:21;10.10;99.90
54518;DHT22;40423;53.176;6.002;2022-11-15T07:41:47;10.20;99.90
54518;DHT22;40423;53.176;6.002;2022-11-15T07:44:14;10.20;99.90
54518;DHT22;40423;53.176;6.002;2022-11-15T07:46:40;10.20;99.90
54518;DHT22;40423;53.176;6.002;2022-11-15T07:49:06;10.30;99.90
54518;DHT22;40423;53.176;6.002;2022-11-15T07:51:31;10.20;99.90
54518;DHT22;40423;53.176;6.002;2022-11-15T07:53:57;10.30;99.90
54518;DHT22;40423;53.176;6.002;2022-11-15T07:56:23;10.30;99.90
54518;DHT22;40423;53.176;6.002;2022-11-15T07:58:48;10.50;99.90
54518;DHT22;40423;53.176;6.002;2022-11-15T08:01:15;10.40;99.90
54518;DHT22;40423;53.176;6.002;2022-11-15T08:03:41;10.40;99.90
54518;DHT22;40423;53.176;6.002;2022-11-15T08:06:07;10.40;99.90
54518;DHT22;40423;53.176;6.002;2022-11-15T08:08:32;10.40;99.90
54518;DHT22;40423;53.176;6.002;2022-11-15T08:10:59;11.40;99.90
54518;DHT22;40423;53.176;6.002;2022-11-15T08:13:24;10.50;99.90
54518;DHT22;40423;53.176;6.002;2022-11-15T08:15:50;10.50;99.90
54518;DHT22;40423;53.176;6.002;2022-11-15T08:18:17;10.50;99.90
54518;DHT22;40423;53.176;6.002;2022-11-15T08:20:43;10.70;99.90
54518;DHT22;40423;53.176;6.002;2022-11-15T08:23:10;10.60;99.90
54518;DHT22;40423;53.176;6.002;2022-11-15T08:25:37;10.60;99.90
54518;DHT22;40423;53.176;6.002;2022-11-15T08:28:05;10.60;99.90
54518;DHT22;40423;53.176;6.002;2022-11-15T08:30:35;10.60;99.90
54518;DHT22;40423;53.176;6.002;2022-11-15T08:33:02;10.60;99.90
54518;DHT22;40423;53.176;6.002;2022-11-15T08:35:28;10.70;99.90
54518;DHT22;40423;53.176;6.002;2022-11-15T08:37:54;10.70;99.90
54518;DHT22;40423;53.176;6.002;2022-11-15T08:40:20;10.60;99.90
54518;DHT22;40423;53.176;6.002;2022-11-15T08:42:46;10.70;99.90
54518;DHT22;40423;53.176;6.002;2022-11-15T08:45:12;10.70;99.90
54518;DHT22;40423;53.176;6.002;2022-11-15T08:47:38;10.70;99.90
54518;DHT22;40423;53.176;6.002;2022-11-15T08:50:04;11.30;99.90
54518;DHT22;40423;53.176;6.002;2022-11-15T08:52:30;10.80;99.90
54518;DHT22;40423;53.176;6.002;2022-11-15T08:54:57;10.80;99.90
54518;DHT22;40423;53.176;6.002;2022-11-15T08:57:23;10.80;99.90
54518;DHT22;40423;53.176;6.002;2022-11-15T08:59:48;10.80;99.90
54518;DHT22;40423;53.176;6.002;2022-11-15T09:02:15;10.90;99.90
54518;DHT22;40423;53.176;6.002;2022-11-15T09:04:42;10.90;99.90
54518;DHT22;40423;53.176;6.002;2022-11-15T09:07:11;10.90;99.90
54518;DHT22;40423;53.176;6.002;2022-11-15T09:09:37;10.90;99.90
54518;DHT22;40423;53.176;6.002;2022-11-15T09:12:04;11.00;99.90
54518;DHT22;40423;53.176;6.002;2022-11-15T09:14:31;11.00;99.90
54518;DHT22;40423;53.176;6.002;2022-11-15T09:16:57;11.00;99.90
54518;DHT22;40423;53.176;6.002;2022-11-15T09:19:23;11.00;99.90
54518;DHT22;40423;53.176;6.002;2022-11-15T09:21:49;11.00;99.90
54518;DHT22;40423;53.176;6.002;2022-11-15T09:24:15;11.00;99.90
54518;DHT22;40423;53.176;6.002;2022-11-15T09:26:41;11.00;99.90
54518;DHT22;40423;53.176;6.002;2022-11-15T09:29:07;11.00;99.90
54518;DHT22;40423;53.176;6.002;2022-11-15T09:31:32;11.00;99.90
54518;DHT22;40423;53.176;6.002;2022-11-15T09:33:58;11.00;99.90
54518;DHT22;40423;53.176;6.002;2022-11-15T09:36:24;11.10;99.90
54518;DHT22;40423;53.176;6.002;2022-11-15T09:38:50;11.20;99.90
54518;DHT22;40423;53.176;6.002;2022-11-15T09:49:54;11.30;99.90
54518;DHT22;40423;53.176;6.002;2022-11-15T09:52:23;11.30;99.90
54518;DHT22;40423;53.176;6.002;2022-11-15T09:54:51;11.30;99.90
54518;DHT22;40423;53.176;6.002;2022-11-15T09:57:41;11.40;99.90
54518;DHT22;40423;53.176;6.002;2022-11-15T10:00:16;11.40;99.90
54518;DHT22;40423;53.176;6.002;2022-11-15T10:05:16;11.40;99.90
54518;DHT22;40423;53.176;6.002;2022-11-15T10:08:11;11.50;99.90
54518;DHT22;40423;53.176;6.002;2022-11-15T10:13:31;11.50;99.90
54518;DHT22;40423;53.176;6.002;2022-11-15T10:16:30;11.60;99.90
54518;DHT22;40423;53.176;6.002;2022-11-15T10:22:11;11.70;99.90
54518;DHT22;40423;53.176;6.002;2022-11-15T10:24:44;11.70;99.90
54518;DHT22;40423;53.176;6.002;2022-11-15T10:27:16;11.70;99.90
54518;DHT22;40423;53.176;6.002;2022-11-15T10:29:47;11.70;99.90
54518;DHT22;40423;53.176;6.002;2022-11-15T10:32:19;11.70;99.90
54518;DHT22;40423;53.176;6.002;2022-11-15T10:34:46;11.80;99.90
54518;DHT22;40423;53.176;6.002;2022-11-15T10:37:12;12.10;99.90
54518;DHT22;40423;53.176;6.002;2022-11-15T10:39:38;11.80;99.90
54518;DHT22;40423;53.176;6.002;2022-11-15T10:42:27;11.90;99.90
54518;DHT22;40423;53.176;6.002;2022-11-15T10:44:54;11.90;99.90
54518;DHT22;40423;53.176;6.002;2022-11-15T10:47:28;11.90;99.90
54518;DHT22;40423;53.176;6.002;2022-11-15T10:49:58;11.90;99.90
54518;DHT22;40423;53.176;6.002;2022-11-15T10:52:25;11.90;99.90
54518;DHT22;40423;53.176;6.002;2022-11-15T10:57:25;12.00;99.90
54518;DHT22;40423;53.176;6.002;2022-11-15T10:59:56;12.00;99.90
54518;DHT22;40423;53.176;6.002;2022-11-15T11:02:37;12.00;99.90
54518;DHT22;40423;53.176;6.002;2022-11-15T11:05:26;12.00;99.90
54518;DHT22;40423;53.176;6.002;2022-11-15T11:08:22;12.00;99.90
54518;DHT22;40423;53.176;6.002;2022-11-15T11:10:56;12.00;99.90
54518;DHT22;40423;53.176;6.002;2022-11-15T11:13:31;11.90;99.90
54518;DHT22;40423;53.176;6.002;2022-11-15T11:16:21;12.00;99.90
54518;DHT22;40423;53.176;6.002;2022-11-15T11:24:58;12.00;99.90
54518;DHT22;40423;53.176;6.002;2022-11-15T11:30:14;12.00;99.90
54518;DHT22;40423;53.176;6.002;2022-11-15T11:35:34;12.10;99.90
54518;DHT22;40423;53.176;6.002;2022-11-15T11:41:11;12.10;99.90
54518;DHT22;40423;53.176;6.002;2022-11-15T11:51:47;12.20;99.90
54518;DHT22;40423;53.176;6.002;2022-11-15T11:54:25;12.20;99.90
54518;DHT22;40423;53.176;6.002;2022-11-15T11:56:53;12.10;99.90
54518;DHT22;40423;53.176;6.002;2022-11-15T11:59:31;12.20;99.90
54518;DHT22;40423;53.176;6.002;2022-11-15T12:02:09;12.20;99.90
54518;DHT22;40423;53.176;6.002;2022-11-15T12:04:40;12.30;99.90
54518;DHT22;40423;53.176;6.002;2022-11-15T12:07:19;12.30;99.90
54518;DHT22;40423;53.176;6.002;2022-11-15T12:12:47;12.40;99.90
54518;DHT22;40423;53.176;6.002;2022-11-15T12:15:31;12.50;99.90
54518;DHT22;40423;53.176;6.002;2022-11-15T12:18:00;12.60;99.90
54518;DHT22;40423;53.176;6.002;2022-11-15T12:20:33;12.60;99.90
54518;DHT22;40423;53.176;6.002;2022-11-15T12:23:12;12.70;99.90
54518;DHT22;40423;53.176;6.002;2022-11-15T12:28:45;12.70;99.90
54518;DHT22;40423;53.176;6.002;2022-11-15T12:36:41;12.60;99.90
54518;DHT22;40423;53.176;6.002;2022-11-15T12:39:09;12.70;99.90
54518;DHT22;40423;53.176;6.002;2022-11-15T12:41:40;12.70;99.90
54518;DHT22;40423;53.176;6.002;2022-11-15T12:44:12;12.70;99.90
54518;DHT22;40423;53.176;6.002;2022-11-15T13:00:00;12.80;99.90
54518;DHT22;40423;53.176;6.002;2022-11-15T13:02:42;12.80;99.90
54518;DHT22;40423;53.176;6.002;2022-11-15T13:20:15;12.60;99.90
54518;DHT22;40423;53.176;6.002;2022-11-15T13:22:46;12.60;99.90
54518;DHT22;40423;53.176;6.002;2022-11-15T13:30:37;12.50;99.90
54518;DHT22;40423;53.176;6.002;2022-11-15T13:33:18;12.50;99.90
54518;DHT22;40423;53.176;6.002;2022-11-15T13:36:00;12.40;99.90
54518;DHT22;40423;53.176;6.002;2022-11-15T13:38:29;12.40;99.90
54518;DHT22;40423;53.176;6.002;2022-11-15T13:40:57;12.50;99.90
54518;DHT22;40423;53.176;6.002;2022-11-15T13:46:21;12.50;99.90
54518;DHT22;40423;53.176;6.002;2022-11-15T13:56:45;12.40;99.90
54518;DHT22;40423;53.176;6.002;2022-11-15T13:59:25;12.40;99.90
54518;DHT22;40423;53.176;6.002;2022-11-15T14:01:53;12.30;99.90
54518;DHT22;40423;53.176;6.002;2022-11-15T14:04:22;12.30;99.90
54518;DHT22;40423;53.176;6.002;2022-11-15T14:06:51;12.30;99.90
54518;DHT22;40423;53.176;6.002;2022-11-15T14:09:38;12.30;99.90
54518;DHT22;40423;53.176;6.002;2022-11-15T14:12:49;12.20;99.90
54518;DHT22;40423;53.176;6.002;2022-11-15T14:15:45;12.20;99.90
54518;DHT22;40423;53.176;6.002;2022-11-15T14:18:43;12.10;99.90
54518;DHT22;40423;53.176;6.002;2022-11-15T14:21:10;12.10;99.90
54518;DHT22;40423;53.176;6.002;2022-11-15T14:23:36;12.10;99.90
54518;DHT22;40423;53.176;6.002;2022-11-15T14:26:01;12.00;99.90
54518;DHT22;40423;53.176;6.002;2022-11-15T14:28:33;12.00;99.90
54518;DHT22;40423;53.176;6.002;2022-11-15T14:31:02;12.00;99.90
54518;DHT22;40423;53.176;6.002;2022-11-15T14:33:33;11.90;99.90
54518;DHT22;40423;53.176;6.002;2022-11-15T14:38:36;11.90;99.90
54518;DHT22;40423;53.176;6.002;2022-11-15T14:41:02;11.90;99.90
54518;DHT22;40423;53.176;6.002;2022-11-15T14:43:28;11.80;99.90
54518;DHT22;40423;53.176;6.002;2022-11-15T14:45:53;11.80;99.90
54518;DHT22;40423;53.176;6.002;2022-11-15T14:48:19;11.70;99.90
54518;DHT22;40423;53.176;6.002;2022-11-15T14:50:45;11.70;99.90
54518;DHT22;40423;53.176;6.002;2022-11-15T14:53:16;11.70;99.90
54518;DHT22;40423;53.176;6.002;2022-11-15T14:55:43;11.70;99.90
54518;DHT22;40423;53.176;6.002;2022-11-15T14:58:09;11.70;99.90
54518;DHT22;40423;53.176;6.002;2022-11-15T15:00:39;11.60;99.90
54518;DHT22;40423;53.176;6.002;2022-11-15T15:03:06;11.60;99.90
54518;DHT22;40423;53.176;6.002;2022-11-15T15:05:37;11.50;99.90
54518;DHT22;40423;53.176;6.002;2022-11-15T15:08:05;11.50;99.90
54518;DHT22;40423;53.176;6.002;2022-11-15T15:10:39;11.50;99.90
54518;DHT22;40423;53.176;6.002;2022-11-15T15:13:08;11.50;99.90
54518;DHT22;40423;53.176;6.002;2022-11-15T15:15:37;11.50;99.90
54518;DHT22;40423;53.176;6.002;2022-11-15T15:18:06;11.40;99.90
54518;DHT22;40423;53.176;6.002;2022-11-15T15:20:35;11.50;99.90
54518;DHT22;40423;53.176;6.002;2022-11-15T15:23:02;11.40;99.90
54518;DHT22;40423;53.176;6.002;2022-11-15T15:25:31;11.40;99.90
54518;DHT22;40423;53.176;6.002;2022-11-15T15:27:58;11.40;99.90
54518;DHT22;40423;53.176;6.002;2022-11-15T15:30:25;11.40;99.90
54518;DHT22;40423;53.176;6.002;2022-11-15T15:32:51;11.40;99.90
54518;DHT22;40423;53.176;6.002;2022-11-15T15:35:17;11.40;99.90
54518;DHT22;40423;53.176;6.002;2022-11-15T15:37:45;11.30;99.90
54518;DHT22;40423;53.176;6.002;2022-11-15T15:40:20;11.30;99.90
54518;DHT22;40423;53.176;6.002;2022-11-15T15:42:47;11.30;99.90
54518;DHT22;40423;53.176;6.002;2022-11-15T15:45:13;11.20;99.90
54518;DHT22;40423;53.176;6.002;2022-11-15T15:47:39;11.20;99.90
54518;DHT22;40423;53.176;6.002;2022-11-15T15:52:43;11.10;99.90
54518;DHT22;40423;53.176;6.002;2022-11-15T15:55:08;11.10;99.90
54518;DHT22;40423;53.176;6.002;2022-11-15T15:57:35;11.10;99.90
54518;DHT22;40423;53.176;6.002;2022-11-15T16:00:02;11.00;99.90
54518;DHT22;40423;53.176;6.002;2022-11-15T16:02:28;11.00;99.90
54518;DHT22;40423;53.176;6.002;2022-11-15T16:04:54;11.00;99.90
54518;DHT22;40423;53.176;6.002;2022-11-15T16:07:22;10.90;99.90
54518;DHT22;40423;53.176;6.002;2022-11-15T16:09:49;11.00;99.90
54518;DHT22;40423;53.176;6.002;2022-11-15T16:12:28;10.90;99.90
54518;DHT22;40423;53.176;6.002;2022-11-15T16:14:54;10.90;99.90
54518;DHT22;40423;53.176;6.002;2022-11-15T16:17:22;10.90;99.90
54518;DHT22;40423;53.176;6.002;2022-11-15T16:19:48;10.90;99.90
54518;DHT22;40423;53.176;6.002;2022-11-15T16:22:13;11.00;99.90
54518;DHT22;40423;53.176;6.002;2022-11-15T16:24:39;11.00;99.90
54518;DHT22;40423;53.176;6.002;2022-11-15T16:27:05;11.00;99.90
54518;DHT22;40423;53.176;6.002;2022-11-15T16:29:30;11.00;99.90
54518;DHT22;40423;53.176;6.002;2022-11-15T16:31:56;11.70;99.90
54518;DHT22;40423;53.176;6.002;2022-11-15T16:34:22;11.00;99.90
54518;DHT22;40423;53.176;6.002;2022-11-15T16:36:48;11.00;99.90
54518;DHT22;40423;53.176;6.002;2022-11-15T16:39:14;11.00;99.90
54518;DHT22;40423;53.176;6.002;2022-11-15T16:41:42;11.00;99.90
54518;DHT22;40423;53.176;6.002;2022-11-15T16:44:12;11.10;99.90
54518;DHT22;40423;53.176;6.002;2022-11-15T16:46:41;11.00;99.90
54518;DHT22;40423;53.176;6.002;2022-11-15T16:49:12;11.00;99.90
54518;DHT22;40423;53.176;6.002;2022-11-15T16:51:39;11.00;99.90
54518;DHT22;40423;53.176;6.002;2022-11-15T16:54:06;11.00;99.90
54518;DHT22;40423;53.176;6.002;2022-11-15T16:56:32;12.10;99.90
54518;DHT22;40423;53.176;6.002;2022-11-15T16:58:59;11.00;99.90
54518;DHT22;40423;53.176;6.002;2022-11-15T17:01:33;11.10;99.90
54518;DHT22;40423;53.176;6.002;2022-11-15T17:04:13;11.10;99.90
54518;DHT22;40423;53.176;6.002;2022-11-15T17:06:42;11.00;99.90
54518;DHT22;40423;53.176;6.002;2022-11-15T17:09:14;11.00;99.90
54518;DHT22;40423;53.176;6.002;2022-11-15T17:11:41;11.10;99.90
54518;DHT22;40423;53.176;6.002;2022-11-15T17:14:07;11.50;99.90
54518;DHT22;40423;53.176;6.002;2022-11-15T17:16:33;11.00;99.90
54518;DHT22;40423;53.176;6.002;2022-11-15T17:19:00;11.10;99.90
54518;DHT22;40423;53.176;6.002;2022-11-15T17:21:26;11.60;99.90
54518;DHT22;40423;53.176;6.002;2022-11-15T17:23:53;11.10;99.90
54518;DHT22;40423;53.176;6.002;2022-11-15T17:26:20;11.70;99.90
54518;DHT22;40423;53.176;6.002;2022-11-15T17:28:46;11.10;99.90
54518;DHT22;40423;53.176;6.002;2022-11-15T17:31:13;11.10;99.90
54518;DHT22;40423;53.176;6.002;2022-11-15T17:33:39;11.20;99.90
54518;DHT22;40423;53.176;6.002;2022-11-15T17:36:07;11.80;99.90
54518;DHT22;40423;53.176;6.002;2022-11-15T17:38:35;11.20;99.90
54518;DHT22;40423;53.176;6.002;2022-11-15T17:41:11;11.20;99.90
54518;DHT22;40423;53.176;6.002;2022-11-15T17:43:37;11.20;99.90
54518;DHT22;40423;53.176;6.002;2022-11-15T17:46:05;11.20;99.90
54518;DHT22;40423;53.176;6.002;2022-11-15T17:48:31;11.20;99.90
54518;DHT22;40423;53.176;6.002;2022-11-15T17:51:02;11.20;99.90
54518;DHT22;40423;53.176;6.002;2022-11-15T17:53:33;11.30;99.90
54518;DHT22;40423;53.176;6.002;2022-11-15T17:56:05;11.30;99.90
54518;DHT22;40423;53.176;6.002;2022-11-15T17:58:31;11.20;99.90